Terminal Aerodrome Forecast
Issued by NWS

Home | Current Version | Previous Version | Text Only | Print | Product List | Glossary On
Versions: 1 2 3 4 5 6 7 8 9 10 11 12 13 14 15 16
000
FTUS42 KFFC 281302 AAA
TAFPDK
TAF AMD
KPDK 281302Z 2813/2912 08005KT 5SM BR OVC005
     FM281500 08006KT P6SM SCT010 BKN020
     FM281700 10008KT P6SM SCT035
     FM290000 12003KT P6SM FEW040 BKN250
     FM290900 10006KT P6SM BKN010 BKN025=

USA.gov is the U.S. government's official web portal to all federal, state and local government web resources and services.